Terminal Aerodrome Forecast
Issued by NWS Corpus Christi, TX

Home | Current Version | Previous Version | Text Only | Print | Product List | Glossary On
Versions: 1 2 3 4 5 6 7 8 9 10 11 12 13 14
469
FTUS44 KCRP 231729
TAFCRP
TAF
KCRP 231729Z 2318/2418 10008G15KT P6SM SCT035 BKN250
     FM232000 13015G20KT P6SM FEW040
     FM240300 14010KT P6SM SKC
     FM240900 VRB03KT P6SM SCT015
     FM241700 10012KT P6SM SCT035=

USA.gov is the U.S. government's official web portal to all federal, state and local government web resources and services.